sensor_id;sensor_type;location;lat;lon;timestamp;pressure;altitude;pressure_sealevel;temperature;humidity
7297;BME280;40758;54.038;11.684;2024-01-11T00:01:35;103096.91;;;-0.49;100.00
7297;BME280;40758;54.038;11.684;2024-01-11T00:04:01;103099.69;;;-0.51;100.00
7297;BME280;40758;54.038;11.684;2024-01-11T00:06:28;103106.91;;;-0.53;100.00
7297;BME280;40758;54.038;11.684;2024-01-11T00:08:55;103117.31;;;-0.48;100.00
7297;BME280;40758;54.038;11.684;2024-01-11T00:11:22;103117.41;;;-0.50;100.00
7297;BME280;40758;54.038;11.684;2024-01-11T00:13:48;103117.50;;;-0.51;100.00
7297;BME280;40758;54.038;11.684;2024-01-11T00:16:15;103122.75;;;-0.50;100.00
7297;BME280;40758;54.038;11.684;2024-01-11T00:18:42;103112.06;;;-0.50;100.00
7297;BME280;40758;54.038;11.684;2024-01-11T00:21:09;103109.41;;;-0.50;100.00
7297;BME280;40758;54.038;11.684;2024-01-11T00:23:36;103112.81;;;-0.48;100.00
7297;BME280;40758;54.038;11.684;2024-01-11T00:26:03;103108.44;;;-0.49;100.00
7297;BME280;40758;54.038;11.684;2024-01-11T00:28:30;103115.44;;;-0.46;100.00
7297;BME280;40758;54.038;11.684;2024-01-11T00:30:56;103113.63;;;-0.46;100.00
7297;BME280;40758;54.038;11.684;2024-01-11T00:33:23;103107.41;;;-0.46;100.00
7297;BME280;40758;54.038;11.684;2024-01-11T00:35:50;103098.53;;;-0.47;100.00
7297;BME280;40758;54.038;11.684;2024-01-11T00:38:17;103090.34;;;-0.44;100.00
7297;BME280;40758;54.038;11.684;2024-01-11T00:40:44;103062.69;;;-0.43;100.00
7297;BME280;40758;54.038;11.684;2024-01-11T00:43:10;103077.75;;;-0.42;100.00
7297;BME280;40758;54.038;11.684;2024-01-11T00:45:37;103068.03;;;-0.43;100.00
7297;BME280;40758;54.038;11.684;2024-01-11T00:48:04;103063.44;;;-0.41;100.00
7297;BME280;40758;54.038;11.684;2024-01-11T00:50:32;103052.22;;;-0.46;100.00
7297;BME280;40758;54.038;11.684;2024-01-11T00:52:58;103078.63;;;-0.41;100.00
7297;BME280;40758;54.038;11.684;2024-01-11T00:55:25;103075.69;;;-0.37;100.00
7297;BME280;40758;54.038;11.684;2024-01-11T00:57:52;103074.66;;;-0.34;100.00
7297;BME280;40758;54.038;11.684;2024-01-11T01:00:19;103073.59;;;-0.32;100.00
7297;BME280;40758;54.038;11.684;2024-01-11T01:02:45;103074.66;;;-0.34;100.00
7297;BME280;40758;54.038;11.684;2024-01-11T01:05:13;103064.72;;;-0.32;100.00
7297;BME280;40758;54.038;11.684;2024-01-11T01:07:40;103072.84;;;-0.34;100.00
7297;BME280;40758;54.038;11.684;2024-01-11T01:10:07;103069.31;;;-0.34;100.00
7297;BME280;40758;54.038;11.684;2024-01-11T01:12:34;103060.25;;;-0.32;100.00
7297;BME280;40758;54.038;11.684;2024-01-11T01:15:01;103068.94;;;-0.28;100.00
7297;BME280;40758;54.038;11.684;2024-01-11T01:17:28;103071.59;;;-0.28;100.00
7297;BME280;40758;54.038;11.684;2024-01-11T01:19:54;103063.59;;;-0.28;100.00
7297;BME280;40758;54.038;11.684;2024-01-11T01:22:21;103071.50;;;-0.27;100.00
7297;BME280;40758;54.038;11.684;2024-01-11T01:24:48;103075.13;;;-0.28;100.00
7297;BME280;40758;54.038;11.684;2024-01-11T01:27:16;103083.88;;;-0.25;100.00
7297;BME280;40758;54.038;11.684;2024-01-11T01:29:43;103096.47;;;-0.28;100.00
7297;BME280;40758;54.038;11.684;2024-01-11T01:32:10;103105.44;;;-0.29;100.00
7297;BME280;40758;54.038;11.684;2024-01-11T01:34:37;103114.22;;;-0.27;100.00
7297;BME280;40758;54.038;11.684;2024-01-11T01:37:03;103110.78;;;-0.29;100.00
7297;BME280;40758;54.038;11.684;2024-01-11T01:39:30;103108.88;;;-0.27;100.00
7297;BME280;40758;54.038;11.684;2024-01-11T01:41:57;103101.03;;;-0.30;100.00
7297;BME280;40758;54.038;11.684;2024-01-11T01:44:24;103100.75;;;-0.25;100.00
7297;BME280;40758;54.038;11.684;2024-01-11T01:46:51;103097.34;;;-0.27;100.00
7297;BME280;40758;54.038;11.684;2024-01-11T01:49:18;103088.47;;;-0.28;100.00
7297;BME280;40758;54.038;11.684;2024-01-11T01:51:49;103096.28;;;-0.24;100.00
7297;BME280;40758;54.038;11.684;2024-01-11T01:54:17;103102.47;;;-0.24;100.00
7297;BME280;40758;54.038;11.684;2024-01-11T01:56:45;103090.19;;;-0.27;100.00
7297;BME280;40758;54.038;11.684;2024-01-11T01:59:12;103084.84;;;-0.27;100.00
7297;BME280;40758;54.038;11.684;2024-01-11T02:01:40;103094.19;;;-0.19;100.00
7297;BME280;40758;54.038;11.684;2024-01-11T02:04:07;103088.19;;;-0.23;100.00
7297;BME280;40758;54.038;11.684;2024-01-11T02:06:34;103095.91;;;-0.18;100.00
7297;BME280;40758;54.038;11.684;2024-01-11T02:09:02;103084.19;;;-0.16;100.00
7297;BME280;40758;54.038;11.684;2024-01-11T02:11:32;103069.31;;;-0.20;100.00
7297;BME280;40758;54.038;11.684;2024-01-11T02:13:59;103060.63;;;-0.23;100.00
7297;BME280;40758;54.038;11.684;2024-01-11T02:16:26;103076.56;;;-0.22;100.00
7297;BME280;40758;54.038;11.684;2024-01-11T02:18:53;103068.63;;;-0.23;100.00
7297;BME280;40758;54.038;11.684;2024-01-11T02:21:22;103078.38;;;-0.22;100.00
7297;BME280;40758;54.038;11.684;2024-01-11T02:24:08;103064.34;;;-0.26;100.00
7297;BME280;40758;54.038;11.684;2024-01-11T02:26:34;103062.72;;;-0.29;100.00
7297;BME280;40758;54.038;11.684;2024-01-11T02:29:04;103076.63;;;-0.23;100.00
7297;BME280;40758;54.038;11.684;2024-01-11T02:31:31;103080.19;;;-0.23;100.00
7297;BME280;40758;54.038;11.684;2024-01-11T02:33:58;103074.91;;;-0.24;100.00
7297;BME280;40758;54.038;11.684;2024-01-11T02:36:47;103069.41;;;-0.21;100.00
7297;BME280;40758;54.038;11.684;2024-01-11T02:39:39;103073.03;;;-0.22;100.00
7297;BME280;40758;54.038;11.684;2024-01-11T02:42:05;103082.19;;;-0.27;100.00
7297;BME280;40758;54.038;11.684;2024-01-11T02:44:32;103094.56;;;-0.25;100.00
7297;BME280;40758;54.038;11.684;2024-01-11T02:46:59;103102.47;;;-0.24;100.00
7297;BME280;40758;54.038;11.684;2024-01-11T02:49:25;103088.09;;;-0.21;100.00
7297;BME280;40758;54.038;11.684;2024-01-11T02:51:52;103087.31;;;-0.23;100.00
7297;BME280;40758;54.038;11.684;2024-01-11T02:54:19;103089.97;;;-0.23;100.00
7297;BME280;40758;54.038;11.684;2024-01-11T02:56:46;103089.81;;;-0.20;100.00
7297;BME280;40758;54.038;11.684;2024-01-11T02:59:13;103087.13;;;-0.20;100.00
7297;BME280;40758;54.038;11.684;2024-01-11T03:01:40;103082.75;;;-0.21;100.00
7297;BME280;40758;54.038;11.684;2024-01-11T03:04:06;103081.69;;;-0.19;100.00
7297;BME280;40758;54.038;11.684;2024-01-11T03:06:33;103073.78;;;-0.20;100.00
7297;BME280;40758;54.038;11.684;2024-01-11T03:09:00;103058.91;;;-0.24;100.00
7297;BME280;40758;54.038;11.684;2024-01-11T03:11:26;103047.09;;;-0.20;100.00
7297;BME280;40758;54.038;11.684;2024-01-11T03:13:56;103038.91;;;-0.17;100.00
7297;BME280;40758;54.038;11.684;2024-01-11T03:16:22;103023.72;;;-0.17;100.00
7297;BME280;40758;54.038;11.684;2024-01-11T03:18:49;103023.72;;;-0.17;100.00
7297;BME280;40758;54.038;11.684;2024-01-11T03:21:16;103021.13;;;-0.18;100.00
7297;BME280;40758;54.038;11.684;2024-01-11T03:23:43;103024.75;;;-0.19;100.00
7297;BME280;40758;54.038;11.684;2024-01-11T03:26:16;103023.06;;;-0.20;100.00
7297;BME280;40758;54.038;11.684;2024-01-11T03:28:43;103016.19;;;-0.24;100.00
7297;BME280;40758;54.038;11.684;2024-01-11T03:31:10;103043.72;;;-0.24;100.00
7297;BME280;40758;54.038;11.684;2024-01-11T03:33:37;103043.84;;;-0.25;100.00
7297;BME280;40758;54.038;11.684;2024-01-11T03:36:11;103055.28;;;-0.23;100.00
7297;BME280;40758;54.038;11.684;2024-01-11T03:38:38;103034.13;;;-0.27;100.00
7297;BME280;40758;54.038;11.684;2024-01-11T03:41:08;103025.34;;;-0.29;100.00
7297;BME280;40758;54.038;11.684;2024-01-11T03:43:39;103021.31;;;-0.36;100.00
7297;BME280;40758;54.038;11.684;2024-01-11T03:46:05;103014.00;;;-0.32;100.00
7297;BME280;40758;54.038;11.684;2024-01-11T03:48:32;103004.56;;;-0.38;100.00
7297;BME280;40758;54.038;11.684;2024-01-11T03:50:59;103011.81;;;-0.40;100.00
7297;BME280;40758;54.038;11.684;2024-01-11T03:53:26;102992.72;;;-0.48;100.00
7297;BME280;40758;54.038;11.684;2024-01-11T03:55:53;103004.19;;;-0.46;100.00
7297;BME280;40758;54.038;11.684;2024-01-11T03:58:20;103006.84;;;-0.46;100.00
7297;BME280;40758;54.038;11.684;2024-01-11T04:00:47;103018.38;;;-0.45;100.00
7297;BME280;40758;54.038;11.684;2024-01-11T04:03:13;103019.41;;;-0.48;100.00
7297;BME280;40758;54.038;11.684;2024-01-11T04:05:40;103010.66;;;-0.50;100.00
7297;BME280;40758;54.038;11.684;2024-01-11T04:08:08;103007.13;;;-0.50;100.00
7297;BME280;40758;54.038;11.684;2024-01-11T04:10:34;103014.44;;;-0.54;100.00
7297;BME280;40758;54.038;11.684;2024-01-11T04:13:01;103028.00;;;-0.57;100.00
7297;BME280;40758;54.038;11.684;2024-01-11T04:15:28;103029.81;;;-0.58;100.00
7297;BME280;40758;54.038;11.684;2024-01-11T04:17:55;103017.69;;;-0.63;100.00
7297;BME280;40758;54.038;11.684;2024-01-11T04:20:22;103013.13;;;-0.61;100.00
7297;BME280;40758;54.038;11.684;2024-01-11T04:22:50;103011.56;;;-0.65;100.00
7297;BME280;40758;54.038;11.684;2024-01-11T04:25:17;103008.91;;;-0.65;100.00
7297;BME280;40758;54.038;11.684;2024-01-11T04:27:44;103003.50;;;-0.64;100.00
7297;BME280;40758;54.038;11.684;2024-01-11T04:30:11;103011.56;;;-0.65;100.00
7297;BME280;40758;54.038;11.684;2024-01-11T04:32:38;103006.44;;;-0.68;100.00
7297;BME280;40758;54.038;11.684;2024-01-11T04:35:05;103012.53;;;-0.66;100.00
7297;BME280;40758;54.038;11.684;2024-01-11T04:37:32;103025.88;;;-0.66;100.00
7297;BME280;40758;54.038;11.684;2024-01-11T04:39:58;103028.44;;;-0.65;100.00
7297;BME280;40758;54.038;11.684;2024-01-11T04:42:27;103026.63;;;-0.64;100.00
7297;BME280;40758;54.038;11.684;2024-01-11T04:44:54;102996.03;;;-0.73;100.00
7297;BME280;40758;54.038;11.684;2024-01-11T04:47:24;103015.94;;;-0.64;100.00
7297;BME280;40758;54.038;11.684;2024-01-11T04:49:50;103004.53;;;-0.66;100.00
7297;BME280;40758;54.038;11.684;2024-01-11T04:52:17;102993.00;;;-0.67;100.00
7297;BME280;40758;54.038;11.684;2024-01-11T04:54:44;102995.66;;;-0.67;100.00
7297;BME280;40758;54.038;11.684;2024-01-11T04:57:11;102993.09;;;-0.68;100.00
7297;BME280;40758;54.038;11.684;2024-01-11T04:59:37;102994.81;;;-0.67;100.00
7297;BME280;40758;54.038;11.684;2024-01-11T05:02:04;102999.19;;;-0.66;100.00
7297;BME280;40758;54.038;11.684;2024-01-11T05:04:31;102994.81;;;-0.67;100.00
7297;BME280;40758;54.038;11.684;2024-01-11T05:06:58;103002.59;;;-0.64;100.00
7297;BME280;40758;54.038;11.684;2024-01-11T05:09:25;102994.72;;;-0.66;100.00
7297;BME280;40758;54.038;11.684;2024-01-11T05:11:51;103004.25;;;-0.62;100.00
7297;BME280;40758;54.038;11.684;2024-01-11T05:14:18;103010.44;;;-0.61;100.00
7297;BME280;40758;54.038;11.684;2024-01-11T05:16:45;103017.59;;;-0.62;100.00
7297;BME280;40758;54.038;11.684;2024-01-11T05:19:12;103008.91;;;-0.65;100.00
7297;BME280;40758;54.038;11.684;2024-01-11T05:21:39;103004.25;;;-0.62;100.00
7297;BME280;40758;54.038;11.684;2024-01-11T05:24:05;102992.44;;;-0.58;100.00
7297;BME280;40758;54.038;11.684;2024-01-11T05:26:34;102997.00;;;-0.60;100.00
7297;BME280;40758;54.038;11.684;2024-01-11T05:29:01;102995.28;;;-0.61;100.00
7297;BME280;40758;54.038;11.684;2024-01-11T05:31:31;102991.00;;;-0.63;100.00
7297;BME280;40758;54.038;11.684;2024-01-11T05:33:58;103002.06;;;-0.55;100.00
7297;BME280;40758;54.038;11.684;2024-01-11T05:36:24;103006.53;;;-0.56;100.00
7297;BME280;40758;54.038;11.684;2024-01-11T05:38:51;103011.78;;;-0.54;100.00
7297;BME280;40758;54.038;11.684;2024-01-11T05:41:18;103002.81;;;-0.53;100.00
7297;BME280;40758;54.038;11.684;2024-01-11T05:43:45;103004.63;;;-0.54;100.00
7297;BME280;40758;54.038;11.684;2024-01-11T05:46:12;102997.19;;;-0.48;100.00
7297;BME280;40758;54.038;11.684;2024-01-11T05:48:39;102989.31;;;-0.50;100.00
7297;BME280;40758;54.038;11.684;2024-01-11T05:51:08;102984.72;;;-0.48;100.00
7297;BME280;40758;54.038;11.684;2024-01-11T05:53:34;102975.00;;;-0.49;100.00
7297;BME280;40758;54.038;11.684;2024-01-11T05:56:07;102989.03;;;-0.45;100.00
7297;BME280;40758;54.038;11.684;2024-01-11T05:58:34;102985.50;;;-0.46;100.00
7297;BME280;40758;54.038;11.684;2024-01-11T06:01:03;102983.38;;;-0.41;100.00
7297;BME280;40758;54.038;11.684;2024-01-11T06:03:30;102974.81;;;-0.46;100.00
7297;BME280;40758;54.038;11.684;2024-01-11T06:06:01;102987.09;;;-0.43;100.00
7297;BME280;40758;54.038;11.684;2024-01-11T06:08:29;102992.25;;;-0.40;100.00
7297;BME280;40758;54.038;11.684;2024-01-11T06:10:58;102989.59;;;-0.40;100.00
7297;BME280;40758;54.038;11.684;2024-01-11T06:13:25;102993.78;;;-0.36;100.00
7297;BME280;40758;54.038;11.684;2024-01-11T06:15:52;102987.56;;;-0.37;100.00
7297;BME280;40758;54.038;11.684;2024-01-11T06:18:19;102991.97;;;-0.36;100.00
7297;BME280;40758;54.038;11.684;2024-01-11T06:20:46;102988.53;;;-0.38;100.00
7297;BME280;40758;54.038;11.684;2024-01-11T06:23:12;102994.84;;;-0.39;100.00
7297;BME280;40758;54.038;11.684;2024-01-11T06:25:39;102999.03;;;-0.35;100.00
7297;BME280;40758;54.038;11.684;2024-01-11T06:28:06;102992.81;;;-0.35;100.00
7297;BME280;40758;54.038;11.684;2024-01-11T06:30:34;102988.34;;;-0.35;100.00
7297;BME280;40758;54.038;11.684;2024-01-11T06:33:01;102989.22;;;-0.34;100.00
7297;BME280;40758;54.038;11.684;2024-01-11T06:35:28;102995.41;;;-0.34;100.00
7297;BME280;40758;54.038;11.684;2024-01-11T06:37:55;102987.56;;;-0.37;100.00
7297;BME280;40758;54.038;11.684;2024-01-11T06:40:22;102995.19;;;-0.31;100.00
7297;BME280;40758;54.038;11.684;2024-01-11T06:42:49;103006.72;;;-0.30;100.00
7297;BME280;40758;54.038;11.684;2024-01-11T06:45:15;103002.94;;;-0.26;100.00
7297;BME280;40758;54.038;11.684;2024-01-11T06:47:42;103005.50;;;-0.24;100.00
7297;BME280;40758;54.038;11.684;2024-01-11T06:50:14;103001.88;;;-0.23;100.00
7297;BME280;40758;54.038;11.684;2024-01-11T06:52:42;103003.41;;;-0.19;100.00
7297;BME280;40758;54.038;11.684;2024-01-11T06:55:08;102989.19;;;-0.20;100.00
7297;BME280;40758;54.038;11.684;2024-01-11T06:57:36;102995.22;;;-0.16;100.00
7297;BME280;40758;54.038;11.684;2024-01-11T07:00:04;102996.19;;;-0.17;100.00
7297;BME280;40758;54.038;11.684;2024-01-11T07:02:31;103002.16;;;-0.14;100.00
7297;BME280;40758;54.038;11.684;2024-01-11T07:04:57;102991.69;;;-0.17;100.00
7297;BME280;40758;54.038;11.684;2024-01-11T07:07:24;102997.66;;;-0.13;100.00
7297;BME280;40758;54.038;11.684;2024-01-11T07:09:52;102983.38;;;-0.12;100.00
7297;BME280;40758;54.038;11.684;2024-01-11T07:12:22;102990.44;;;-0.11;100.00
7297;BME280;40758;54.038;11.684;2024-01-11T07:14:49;102989.47;;;-0.10;100.00
7297;BME280;40758;54.038;11.684;2024-01-11T07:17:15;102991.19;;;-0.09;100.00
7297;BME280;40758;54.038;11.684;2024-01-11T07:19:42;102986.59;;;-0.07;100.00
7297;BME280;40758;54.038;11.684;2024-01-11T07:22:09;102988.41;;;-0.08;100.00
7297;BME280;40758;54.038;11.684;2024-01-11T07:24:37;102992.81;;;-0.07;100.00
7297;BME280;40758;54.038;11.684;2024-01-11T07:27:05;102999.22;;;-0.09;100.00
7297;BME280;40758;54.038;11.684;2024-01-11T07:29:33;102998.25;;;-0.08;100.00
7297;BME280;40758;54.038;11.684;2024-01-11T07:32:00;102995.78;;;-0.11;100.00
7297;BME280;40758;54.038;11.684;2024-01-11T07:34:27;102998.34;;;-0.10;100.00
7297;BME280;40758;54.038;11.684;2024-01-11T07:36:54;102994.25;;;-0.15;100.00
7297;BME280;40758;54.038;11.684;2024-01-11T07:39:21;102993.19;;;-0.13;100.00
7297;BME280;40758;54.038;11.684;2024-01-11T07:41:49;102993.41;;;-0.16;100.00
7297;BME280;40758;54.038;11.684;2024-01-11T07:44:16;102994.25;;;-0.15;100.00
7297;BME280;40758;54.038;11.684;2024-01-11T07:46:43;102988.22;;;-0.19;100.00
7297;BME280;40758;54.038;11.684;2024-01-11T07:49:22;102994.44;;;-0.18;100.00
7297;BME280;40758;54.038;11.684;2024-01-11T07:51:49;102988.22;;;-0.19;100.00
7297;BME280;40758;54.038;11.684;2024-01-11T07:54:16;102974.81;;;-0.17;100.00
7297;BME280;40758;54.038;11.684;2024-01-11T07:56:43;102969.66;;;-0.20;100.00
7297;BME280;40758;54.038;11.684;2024-01-11T07:59:10;102969.53;;;-0.19;100.00
7297;BME280;40758;54.038;11.684;2024-01-11T08:01:41;102938.19;;;-0.30;100.00
7297;BME280;40758;54.038;11.684;2024-01-11T08:04:08;102958.78;;;-0.17;100.00
7297;BME280;40758;54.038;11.684;2024-01-11T08:06:35;102944.66;;;-0.19;100.00
7297;BME280;40758;54.038;11.684;2024-01-11T08:09:02;102937.78;;;-0.23;100.00
7297;BME280;40758;54.038;11.684;2024-01-11T08:11:31;102957.03;;;-0.18;100.00
7297;BME280;40758;54.038;11.684;2024-01-11T08:14:03;102959.31;;;-0.12;100.00
7297;BME280;40758;54.038;11.684;2024-01-11T08:16:32;102962.97;;;-0.13;100.00
7297;BME280;40758;54.038;11.684;2024-01-11T08:18:59;102956.66;;;-0.12;100.00
7297;BME280;40758;54.038;11.684;2024-01-11T08:21:27;102956.25;;;-0.06;100.00
7297;BME280;40758;54.038;11.684;2024-01-11T08:23:55;102952.66;;;-0.05;100.00
7297;BME280;40758;54.038;11.684;2024-01-11T08:26:27;102951.59;;;-0.03;100.00
7297;BME280;40758;54.038;11.684;2024-01-11T08:28:53;102964.44;;;0.05;100.00
7297;BME280;40758;54.038;11.684;2024-01-11T08:31:20;102953.38;;;0.11;100.00
7297;BME280;40758;54.038;11.684;2024-01-11T08:33:47;102954.03;;;0.15;100.00
7297;BME280;40758;54.038;11.684;2024-01-11T08:36:15;102958.31;;;0.17;100.00
7297;BME280;40758;54.038;11.684;2024-01-11T08:38:42;102956.41;;;0.19;100.00
7297;BME280;40758;54.038;11.684;2024-01-11T08:41:09;102959.72;;;0.23;100.00
7297;BME280;40758;54.038;11.684;2024-01-11T08:43:36;102965.00;;;0.24;100.00
7297;BME280;40758;54.038;11.684;2024-01-11T08:46:03;102963.81;;;0.29;100.00
7297;BME280;40758;54.038;11.684;2024-01-11T08:48:30;102969.09;;;0.30;100.00
7297;BME280;40758;54.038;11.684;2024-01-11T08:50:57;102976.13;;;0.31;100.00
7297;BME280;40758;54.038;11.684;2024-01-11T08:53:24;102971.09;;;0.26;100.00
7297;BME280;40758;54.038;11.684;2024-01-11T08:55:50;102971.84;;;0.29;100.00
7297;BME280;40758;54.038;11.684;2024-01-11T08:58:17;102970.91;;;0.30;100.00
7297;BME280;40758;54.038;11.684;2024-01-11T09:00:44;102972.50;;;0.32;100.00
7297;BME280;40758;54.038;11.684;2024-01-11T09:03:11;102974.44;;;0.30;100.00
7297;BME280;40758;54.038;11.684;2024-01-11T09:05:39;102974.31;;;0.32;100.00
7297;BME280;40758;54.038;11.684;2024-01-11T09:08:06;102971.66;;;0.32;100.00
7297;BME280;40758;54.038;11.684;2024-01-11T09:10:39;102977.84;;;0.32;100.00
7297;BME280;40758;54.038;11.684;2024-01-11T09:13:08;102970.56;;;0.34;100.00
7297;BME280;40758;54.038;11.684;2024-01-11T09:15:37;102971.25;;;0.38;100.00
7297;BME280;40758;54.038;11.684;2024-01-11T09:18:04;102964.81;;;0.40;100.00
7297;BME280;40758;54.038;11.684;2024-01-11T09:20:31;102961.00;;;0.44;100.00
7297;BME280;40758;54.038;11.684;2024-01-11T09:22:58;102947.53;;;0.46;100.00
7297;BME280;40758;54.038;11.684;2024-01-11T09:25:25;102953.53;;;0.49;100.00
7297;BME280;40758;54.038;11.684;2024-01-11T09:27:51;102956.31;;;0.48;100.00
7297;BME280;40758;54.038;11.684;2024-01-11T09:30:18;102952.47;;;0.52;100.00
7297;BME280;40758;54.038;11.684;2024-01-11T09:32:45;102955.06;;;0.53;100.00
7297;BME280;40758;54.038;11.684;2024-01-11T09:35:12;102954.66;;;0.60;100.00
7297;BME280;40758;54.038;11.684;2024-01-11T09:37:42;102947.59;;;0.59;100.00
7297;BME280;40758;54.038;11.684;2024-01-11T09:40:13;102942.25;;;0.59;100.00
7297;BME280;40758;54.038;11.684;2024-01-11T09:42:40;102938.72;;;0.58;100.00
7297;BME280;40758;54.038;11.684;2024-01-11T09:45:17;102946.81;;;0.57;100.00
7297;BME280;40758;54.038;11.684;2024-01-11T09:47:45;102948.63;;;0.56;100.00
7297;BME280;40758;54.038;11.684;2024-01-11T09:50:16;102955.63;;;0.59;100.00
7297;BME280;40758;54.038;11.684;2024-01-11T09:52:48;102956.66;;;0.56;100.00
7297;BME280;40758;54.038;11.684;2024-01-11T09:55:16;102963.53;;;0.60;100.00
7297;BME280;40758;54.038;11.684;2024-01-11T09:57:45;102966.94;;;0.62;100.00
7297;BME280;40758;54.038;11.684;2024-01-11T10:00:22;102953.13;;;0.56;100.00
7297;BME280;40758;54.038;11.684;2024-01-11T10:02:50;102963.31;;;0.63;100.00
7297;BME280;40758;54.038;11.684;2024-01-11T10:05:17;102972.00;;;0.67;100.00
7297;BME280;40758;54.038;11.684;2024-01-11T10:07:45;102957.47;;;0.71;100.00
7297;BME280;40758;54.038;11.684;2024-01-11T10:10:14;102947.19;;;0.77;100.00
7297;BME280;40758;54.038;11.684;2024-01-11T10:12:44;102943.16;;;0.85;100.00
7297;BME280;40758;54.038;11.684;2024-01-11T10:15:12;102942.72;;;0.91;100.00
7297;BME280;40758;54.038;11.684;2024-01-11T10:17:41;102942.53;;;0.94;100.00
7297;BME280;40758;54.038;11.684;2024-01-11T10:20:08;102928.94;;;0.97;100.00
7297;BME280;40758;54.038;11.684;2024-01-11T10:22:37;102935.69;;;1.02;100.00
7297;BME280;40758;54.038;11.684;2024-01-11T10:25:12;102931.09;;;1.04;100.00
7297;BME280;40758;54.038;11.684;2024-01-11T10:27:43;102930.56;;;1.12;100.00
7297;BME280;40758;54.038;11.684;2024-01-11T10:30:15;102917.91;;;1.14;100.00
7297;BME280;40758;54.038;11.684;2024-01-11T10:32:49;102932.16;;;1.27;100.00
7297;BME280;40758;54.038;11.684;2024-01-11T10:35:16;102933.34;;;1.36;100.00
7297;BME280;40758;54.038;11.684;2024-01-11T10:37:46;102942.13;;;1.51;100.00
7297;BME280;40758;54.038;11.684;2024-01-11T10:40:16;102935.44;;;1.56;100.00
7297;BME280;40758;54.038;11.684;2024-01-11T10:42:45;102931.84;;;1.57;100.00
7297;BME280;40758;54.038;11.684;2024-01-11T10:45:16;102939.09;;;1.55;100.00
7297;BME280;40758;54.038;11.684;2024-01-11T10:48:06;102942.53;;;1.57;100.00
7297;BME280;40758;54.038;11.684;2024-01-11T10:50:37;102933.31;;;1.49;100.00
7297;BME280;40758;54.038;11.684;2024-01-11T10:55:38;102936.09;;;1.60;100.00
7297;BME280;40758;54.038;11.684;2024-01-11T10:58:06;102939.44;;;1.64;100.00
7297;BME280;40758;54.038;11.684;2024-01-11T11:00:34;102939.19;;;1.67;100.00
7297;BME280;40758;54.038;11.684;2024-01-11T11:03:02;102931.06;;;1.68;100.00
7297;BME280;40758;54.038;11.684;2024-01-11T11:05:31;102940.81;;;1.69;100.00
7297;BME280;40758;54.038;11.684;2024-01-11T11:07:59;102929.53;;;1.77;100.00
7297;BME280;40758;54.038;11.684;2024-01-11T11:10:28;102923.19;;;1.78;100.00
7297;BME280;40758;54.038;11.684;2024-01-11T11:12:56;102938.09;;;1.82;100.00
7297;BME280;40758;54.038;11.684;2024-01-11T11:15:29;102921.28;;;1.80;100.00
7297;BME280;40758;54.038;11.684;2024-01-11T11:17:56;102913.34;;;1.78;100.00
7297;BME280;40758;54.038;11.684;2024-01-11T11:20:24;102909.59;;;1.81;100.00
7297;BME280;40758;54.038;11.684;2024-01-11T11:23:10;102898.66;;;1.84;100.00
7297;BME280;40758;54.038;11.684;2024-01-11T11:25:38;102910.97;;;1.86;100.00
7297;BME280;40758;54.038;11.684;2024-01-11T11:28:06;102888.22;;;1.68;100.00
7297;BME280;40758;54.038;11.684;2024-01-11T11:30:37;102914.41;;;1.89;100.00
7297;BME280;40758;54.038;11.684;2024-01-11T11:33:25;102907.72;;;1.94;100.00
7297;BME280;40758;54.038;11.684;2024-01-11T11:35:54;102909.44;;;1.95;100.00
7297;BME280;40758;54.038;11.684;2024-01-11T11:38:26;102910.28;;;1.96;100.00
7297;BME280;40758;54.038;11.684;2024-01-11T11:40:55;102918.25;;;1.97;100.00
7297;BME280;40758;54.038;11.684;2024-01-11T11:43:22;102913.94;;;1.95;100.00
7297;BME280;40758;54.038;11.684;2024-01-11T11:45:51;102915.13;;;1.91;100.00
7297;BME280;40758;54.038;11.684;2024-01-11T11:51:18;102912.97;;;1.96;100.00
7297;BME280;40758;54.038;11.684;2024-01-11T11:53:47;102898.84;;;1.94;100.00
7297;BME280;40758;54.038;11.684;2024-01-11T11:56:21;102899.81;;;1.93;100.00
7297;BME280;40758;54.038;11.684;2024-01-11T11:58:49;102902.91;;;1.99;100.00
7297;BME280;40758;54.038;11.684;2024-01-11T12:01:16;102902.31;;;2.07;100.00
7297;BME280;40758;54.038;11.684;2024-01-11T12:03:45;102889.72;;;2.20;100.00
7297;BME280;40758;54.038;11.684;2024-01-11T12:06:20;102895.13;;;2.31;100.00
7297;BME280;40758;54.038;11.684;2024-01-11T12:08:52;102890.88;;;2.29;100.00
7297;BME280;40758;54.038;11.684;2024-01-11T12:11:22;102879.97;;;2.19;100.00
7297;BME280;40758;54.038;11.684;2024-01-11T12:13:50;102884.66;;;2.28;100.00
7297;BME280;40758;54.038;11.684;2024-01-11T12:16:17;102888.66;;;2.23;100.00
7297;BME280;40758;54.038;11.684;2024-01-11T12:18:43;102878.91;;;2.22;100.00
7297;BME280;40758;54.038;11.684;2024-01-11T12:21:10;102870.28;;;2.29;100.00
7297;BME280;40758;54.038;11.684;2024-01-11T12:23:39;102885.25;;;2.32;100.00
7297;BME280;40758;54.038;11.684;2024-01-11T12:26:07;102872.22;;;2.27;100.00
7297;BME280;40758;54.038;11.684;2024-01-11T12:28:41;102876.31;;;2.20;100.00
7297;BME280;40758;54.038;11.684;2024-01-11T12:31:09;102884.94;;;2.12;100.00
7297;BME280;40758;54.038;11.684;2024-01-11T12:33:36;102877.00;;;2.11;100.00
7297;BME280;40758;54.038;11.684;2024-01-11T12:36:06;102865.66;;;2.07;100.00
7297;BME280;40758;54.038;11.684;2024-01-11T12:38:35;102865.06;;;2.04;100.00
7297;BME280;40758;54.038;11.684;2024-01-11T12:41:06;102862.06;;;1.96;100.00
7297;BME280;40758;54.038;11.684;2024-01-11T12:43:33;102856.31;;;1.89;100.00
7297;BME280;40758;54.038;11.684;2024-01-11T12:46:01;102872.09;;;1.81;100.00
7297;BME280;40758;54.038;11.684;2024-01-11T12:48:29;102867.94;;;1.77;100.00
7297;BME280;40758;54.038;11.684;2024-01-11T12:50:58;102877.78;;;1.76;100.00
7297;BME280;40758;54.038;11.684;2024-01-11T12:53:40;102874.53;;;1.84;100.00